createdAt,value
2022-09-30T00:01:34.899Z,11.35
2022-09-30T00:04:02.205Z,11.50
2022-09-30T00:06:30.218Z,12.65
2022-09-30T00:08:58.149Z,11.20
2022-09-30T00:11:31.160Z,11.32
2022-09-30T00:13:58.298Z,13.00
2022-09-30T00:16:29.278Z,11.20
2022-09-30T00:18:56.922Z,10.60
2022-09-30T00:21:25.115Z,11.32
2022-09-30T00:23:51.742Z,12.32
2022-09-30T00:26:21.329Z,10.43
2022-09-30T00:28:55.933Z,12.38
2022-09-30T00:31:24.704Z,12.13
2022-09-30T00:34:11.159Z,11.10
2022-09-30T00:36:52.433Z,12.55
2022-09-30T00:39:24.587Z,10.82
2022-09-30T00:41:55.450Z,12.30
2022-09-30T00:44:51.140Z,10.50
2022-09-30T00:47:46.191Z,10.15
2022-09-30T00:50:27.008Z,10.05
2022-09-30T00:53:17.857Z,9.48
2022-09-30T00:55:54.686Z,11.13
2022-09-30T00:58:39.659Z,16.40
2022-09-30T01:01:07.301Z,11.32
2022-09-30T01:03:38.270Z,12.10
2022-09-30T01:06:05.496Z,14.07
2022-09-30T01:08:35.546Z,10.50
2022-09-30T01:11:07.227Z,11.38
2022-09-30T01:13:36.440Z,12.02
2022-09-30T01:16:18.023Z,10.98
2022-09-30T01:18:56.461Z,9.52
2022-09-30T01:21:25.923Z,11.45
2022-09-30T01:24:29.589Z,12.55
2022-09-30T01:27:15.963Z,13.77
2022-09-30T01:29:45.358Z,14.65
2022-09-30T01:32:23.934Z,15.25
2022-09-30T01:34:50.360Z,14.82
2022-09-30T01:37:24.165Z,14.25
2022-09-30T01:40:10.404Z,12.45
2022-09-30T01:42:49.617Z,12.05
2022-09-30T01:45:22.293Z,14.13
2022-09-30T01:47:56.737Z,12.25
2022-09-30T01:50:40.866Z,16.58
2022-09-30T01:53:43.628Z,12.07
2022-09-30T01:56:20.821Z,18.58
2022-09-30T01:58:57.825Z,14.30
2022-09-30T02:01:32.312Z,13.57
2022-09-30T02:04:05.582Z,13.40
2022-09-30T02:06:37.973Z,15.90
2022-09-30T02:09:36.439Z,15.27
2022-09-30T02:12:06.761Z,15.52
2022-09-30T02:14:45.308Z,16.42
2022-09-30T02:17:23.421Z,12.73
2022-09-30T02:19:59.629Z,12.38
2022-09-30T02:22:37.418Z,17.55
2022-09-30T02:25:06.457Z,16.10
2022-09-30T02:27:45.171Z,16.17
2022-09-30T02:30:13.179Z,14.68
2022-09-30T02:32:45.535Z,25.42
2022-09-30T02:35:45.127Z,15.70
2022-09-30T02:38:28.701Z,19.63
2022-09-30T02:41:02.346Z,19.55
2022-09-30T02:46:19.020Z,21.40
2022-09-30T02:49:27.303Z,19.50
2022-09-30T02:52:05.577Z,18.13
2022-09-30T02:55:05.824Z,15.10
2022-09-30T02:57:41.546Z,17.58
2022-09-30T03:00:12.719Z,17.30
2022-09-30T03:02:42.686Z,16.55
2022-09-30T03:05:10.498Z,16.52
2022-09-30T03:07:38.158Z,16.85
2022-09-30T03:10:18.006Z,17.33
2022-09-30T03:12:56.874Z,16.88
2022-09-30T03:15:55.628Z,19.05
2022-09-30T03:18:45.599Z,15.90
2022-09-30T03:21:51.194Z,17.60
2022-09-30T03:24:44.173Z,18.92
2022-09-30T03:27:48.807Z,20.60
2022-09-30T03:33:17.578Z,16.50
2022-09-30T03:36:01.757Z,18.30
2022-09-30T03:39:06.039Z,19.42
2022-09-30T03:41:42.942Z,20.42
2022-09-30T03:44:19.418Z,17.23
2022-09-30T03:46:57.362Z,18.83
2022-09-30T03:49:28.226Z,17.60
2022-09-30T03:51:58.546Z,23.25
2022-09-30T03:54:25.493Z,17.75
2022-09-30T03:56:51.985Z,16.70
2022-09-30T03:59:25.603Z,17.85
2022-09-30T04:01:52.631Z,18.92
2022-09-30T04:04:19.330Z,16.40
2022-09-30T04:06:46.479Z,18.02
2022-09-30T04:09:13.105Z,17.58
2022-09-30T04:11:42.979Z,17.08
2022-09-30T04:14:09.707Z,18.45
2022-09-30T04:16:36.276Z,16.67
2022-09-30T04:19:03.229Z,16.80
2022-09-30T04:21:29.881Z,15.52
2022-09-30T04:23:56.802Z,17.88
2022-09-30T04:26:23.506Z,16.65
2022-09-30T04:28:50.420Z,14.93
2022-09-30T04:31:17.801Z,16.45
2022-09-30T04:33:45.414Z,16.33
2022-09-30T04:36:11.914Z,17.50
2022-09-30T04:38:38.455Z,17.70
2022-09-30T04:41:06.639Z,17.90
2022-09-30T04:43:34.325Z,17.92
2022-09-30T04:46:01.517Z,18.88
2022-09-30T04:48:31.319Z,19.92
2022-09-30T04:51:00.022Z,17.55
2022-09-30T04:53:26.639Z,18.13
2022-09-30T04:55:59.595Z,19.80
2022-09-30T04:58:26.570Z,18.70
2022-09-30T05:01:00.480Z,19.20
2022-09-30T05:03:27.093Z,18.60
2022-09-30T05:05:53.571Z,19.27
2022-09-30T05:08:20.621Z,19.65
2022-09-30T05:10:57.341Z,21.67
2022-09-30T05:13:30.957Z,18.00
2022-09-30T05:18:25.964Z,20.98
2022-09-30T05:20:53.656Z,24.60
2022-09-30T05:23:21.029Z,17.63
2022-09-30T05:25:47.995Z,20.90
2022-09-30T05:28:14.989Z,18.85
2022-09-30T05:30:43.514Z,15.90
2022-09-30T05:33:11.156Z,16.35
2022-09-30T05:35:39.439Z,17.85
2022-09-30T05:38:05.963Z,19.13
2022-09-30T05:40:32.715Z,17.80
2022-09-30T05:43:00.269Z,19.27
2022-09-30T05:45:27.042Z,22.77
2022-09-30T05:47:54.295Z,21.50
2022-09-30T05:50:22.055Z,19.48
2022-09-30T05:52:49.514Z,18.15
2022-09-30T05:55:17.351Z,16.90
2022-09-30T05:57:46.162Z,17.77
2022-09-30T06:00:12.684Z,21.20
2022-09-30T06:02:39.407Z,31.95
2022-09-30T06:05:07.003Z,19.83
2022-09-30T06:07:34.766Z,27.08
2022-09-30T06:10:02.381Z,20.17
2022-09-30T06:12:28.882Z,27.25
2022-09-30T06:14:55.974Z,29.15
2022-09-30T06:17:23.111Z,24.90
2022-09-30T06:19:49.858Z,27.67
2022-09-30T06:22:17.552Z,19.85
2022-09-30T06:24:50.365Z,37.35
2022-09-30T06:27:19.341Z,42.17
2022-09-30T06:29:45.841Z,23.63
2022-09-30T06:32:13.139Z,33.72
2022-09-30T06:34:39.655Z,27.13
2022-09-30T06:37:07.114Z,25.58
2022-09-30T06:39:33.581Z,25.02
2022-09-30T06:41:59.986Z,28.52
2022-09-30T06:44:26.441Z,26.27
2022-09-30T06:46:54.366Z,36.30
2022-09-30T06:49:21.515Z,24.88
2022-09-30T06:51:48.064Z,22.70
2022-09-30T06:54:14.793Z,23.60
2022-09-30T06:56:41.871Z,31.02
2022-09-30T06:59:08.403Z,28.98
2022-09-30T07:01:34.998Z,24.80
2022-09-30T07:04:08.003Z,28.67
2022-09-30T07:06:34.721Z,46.70
2022-09-30T07:09:01.245Z,41.35
2022-09-30T07:11:27.752Z,29.40
2022-09-30T07:13:54.270Z,27.23
2022-09-30T07:16:21.423Z,26.95
2022-09-30T07:18:48.123Z,23.80
2022-09-30T07:21:16.238Z,24.85
2022-09-30T07:23:49.378Z,31.95
2022-09-30T07:26:17.847Z,22.65
2022-09-30T07:28:45.186Z,22.52
2022-09-30T07:31:34.039Z,25.02
2022-09-30T07:34:02.716Z,23.20
2022-09-30T07:36:33.434Z,19.83
2022-09-30T07:39:06.550Z,27.25
2022-09-30T07:41:35.991Z,23.67
2022-09-30T07:44:03.949Z,25.08
2022-09-30T07:46:33.851Z,36.05
2022-09-30T07:49:05.818Z,27.15
2022-09-30T07:51:38.151Z,33.10
2022-09-30T07:54:11.691Z,29.50
2022-09-30T07:59:31.678Z,41.33
2022-09-30T08:01:58.469Z,26.88
2022-09-30T08:04:26.803Z,29.15
2022-09-30T08:07:02.258Z,21.23
2022-09-30T08:09:30.219Z,23.10
2022-09-30T08:11:57.279Z,22.13
2022-09-30T08:14:26.492Z,20.27
2022-09-30T08:16:53.993Z,19.45
2022-09-30T08:19:23.029Z,17.73
2022-09-30T08:21:51.265Z,18.35
2022-09-30T08:24:17.916Z,17.52
2022-09-30T08:26:44.532Z,15.02
2022-09-30T08:29:20.101Z,16.50
2022-09-30T08:31:53.978Z,15.48
2022-09-30T08:34:21.211Z,17.10
2022-09-30T08:36:48.474Z,16.85
2022-09-30T08:39:15.098Z,16.55
2022-09-30T08:42:19.140Z,16.50
2022-09-30T08:44:52.406Z,17.20
2022-09-30T08:47:42.328Z,16.42
2022-09-30T08:50:19.304Z,15.25
2022-09-30T08:52:49.667Z,14.73
2022-09-30T08:55:22.867Z,15.63
2022-09-30T08:57:51.202Z,14.95
2022-09-30T09:00:19.073Z,15.50
2022-09-30T09:02:55.787Z,16.10
2022-09-30T09:05:54.339Z,16.27
2022-09-30T09:08:23.901Z,17.60
2022-09-30T09:11:25.263Z,18.65
2022-09-30T09:14:01.422Z,18.88
2022-09-30T09:16:51.602Z,17.80
2022-09-30T09:19:25.264Z,17.85
2022-09-30T09:24:30.499Z,18.30
2022-09-30T09:26:59.027Z,18.80
2022-09-30T09:29:54.977Z,19.08
2022-09-30T09:32:21.538Z,20.05
2022-09-30T09:34:55.581Z,19.02
2022-09-30T09:38:02.616Z,18.35
2022-09-30T09:40:43.044Z,19.10
2022-09-30T09:43:30.551Z,19.38
2022-09-30T09:46:08.994Z,19.17
2022-09-30T09:48:36.015Z,18.27
2022-09-30T09:51:14.357Z,18.25
2022-09-30T09:53:53.137Z,17.98
2022-09-30T09:56:31.172Z,15.50
2022-09-30T09:59:12.495Z,16.83
2022-09-30T10:01:51.122Z,16.40
2022-09-30T10:04:33.316Z,16.88
2022-09-30T10:07:02.325Z,17.05
2022-09-30T10:09:35.051Z,18.75
2022-09-30T10:12:07.292Z,19.33
2022-09-30T10:14:46.139Z,19.88
2022-09-30T10:17:29.473Z,19.88
2022-09-30T10:20:17.510Z,21.63
2022-09-30T10:22:44.128Z,21.75
2022-09-30T10:25:23.058Z,21.27
2022-09-30T10:28:00.021Z,20.40
2022-09-30T10:30:46.872Z,20.10
2022-09-30T10:33:34.805Z,21.90
2022-09-30T10:36:05.970Z,20.98
2022-09-30T10:38:34.675Z,19.73
2022-09-30T10:41:02.861Z,17.75
2022-09-30T10:43:33.979Z,15.55
2022-09-30T10:46:24.640Z,15.38
2022-09-30T10:48:51.537Z,12.18
2022-09-30T10:51:24.875Z,12.55
2022-09-30T10:53:51.625Z,8.05
2022-09-30T10:56:46.191Z,8.77
2022-09-30T10:59:34.679Z,9.13
2022-09-30T11:02:16.032Z,10.27
2022-09-30T11:04:50.218Z,11.05
2022-09-30T11:07:31.397Z,11.23
2022-09-30T11:10:21.135Z,10.40
2022-09-30T11:13:00.722Z,10.05
2022-09-30T11:16:01.166Z,9.27
2022-09-30T11:18:52.823Z,9.45
2022-09-30T11:21:29.545Z,9.50
2022-09-30T11:24:23.296Z,9.18
2022-09-30T11:27:12.662Z,9.40
2022-09-30T11:29:48.187Z,9.50
2022-09-30T11:32:36.394Z,9.55
2022-09-30T11:35:05.888Z,9.95
2022-09-30T11:37:51.160Z,10.25
2022-09-30T11:40:37.933Z,8.95
2022-09-30T11:43:26.352Z,8.75
2022-09-30T11:46:30.849Z,8.60
2022-09-30T11:51:54.802Z,7.32
2022-09-30T11:55:00.351Z,7.30
2022-09-30T11:57:38.547Z,6.65
2022-09-30T12:00:19.178Z,8.20
2022-09-30T12:02:53.177Z,7.32
2022-09-30T12:05:25.508Z,6.88
2022-09-30T12:07:58.588Z,6.05
2022-09-30T12:10:33.972Z,5.43
2022-09-30T12:13:06.862Z,5.35
2022-09-30T12:15:35.500Z,5.00
2022-09-30T12:18:32.634Z,4.80
2022-09-30T12:21:04.231Z,5.03
2022-09-30T12:23:39.981Z,4.80
2022-09-30T12:26:07.183Z,4.60
2022-09-30T12:29:11.130Z,5.40
2022-09-30T12:31:46.506Z,5.72
2022-09-30T12:34:35.858Z,5.82
2022-09-30T12:37:14.701Z,4.93
2022-09-30T12:39:57.799Z,5.03
2022-09-30T12:42:49.314Z,4.78
2022-09-30T12:45:24.360Z,4.82
2022-09-30T12:47:57.383Z,4.80
2022-09-30T12:50:30.007Z,4.60
2022-09-30T12:52:57.768Z,4.47
2022-09-30T12:55:31.292Z,4.30
2022-09-30T13:00:34.851Z,4.50
2022-09-30T13:03:08.192Z,4.40
2022-09-30T13:05:34.689Z,4.70
2022-09-30T13:08:04.480Z,4.60
2022-09-30T13:10:34.716Z,4.18
2022-09-30T13:13:10.289Z,3.80
2022-09-30T13:15:39.900Z,4.28
2022-09-30T13:18:23.333Z,4.15
2022-09-30T13:20:56.426Z,4.03
2022-09-30T13:23:35.983Z,3.70
2022-09-30T13:26:04.704Z,4.05
2022-09-30T13:28:38.263Z,3.72
2022-09-30T13:33:45.860Z,3.63
2022-09-30T13:36:56.528Z,4.00
2022-09-30T13:39:23.070Z,3.80
2022-09-30T13:42:03.680Z,3.88
2022-09-30T13:45:07.985Z,4.47
2022-09-30T13:47:45.366Z,4.63
2022-09-30T13:50:23.699Z,4.13
2022-09-30T13:52:57.815Z,3.70
2022-09-30T13:55:37.043Z,4.00
2022-09-30T13:58:22.520Z,3.85
2022-09-30T14:00:57.086Z,4.10
2022-09-30T14:03:41.854Z,3.97
2022-09-30T14:06:20.319Z,3.92
2022-09-30T14:09:13.463Z,4.10
2022-09-30T14:11:59.230Z,3.90
2022-09-30T14:14:31.121Z,3.50
2022-09-30T14:17:35.509Z,3.83
2022-09-30T14:20:24.217Z,4.20
2022-09-30T14:22:51.033Z,4.00
2022-09-30T14:25:23.463Z,4.22
2022-09-30T14:28:00.416Z,4.30
2022-09-30T14:30:28.028Z,4.10
2022-09-30T14:32:56.770Z,4.28
2022-09-30T14:35:28.360Z,4.13
2022-09-30T14:38:00.159Z,4.20
2022-09-30T14:40:32.289Z,4.32
2022-09-30T14:43:02.759Z,4.10
2022-09-30T14:45:42.971Z,4.32
2022-09-30T14:48:38.705Z,4.50
2022-09-30T14:51:10.383Z,4.22
2022-09-30T14:53:40.890Z,4.13
2022-09-30T14:56:30.583Z,4.00
2022-09-30T14:58:59.328Z,4.50
2022-09-30T15:01:31.298Z,5.18
2022-09-30T15:04:07.953Z,5.18
2022-09-30T15:06:38.195Z,5.60
2022-09-30T15:09:07.824Z,5.13
2022-09-30T15:11:39.607Z,5.10
2022-09-30T15:14:13.961Z,4.80
2022-09-30T15:16:49.441Z,4.93
2022-09-30T15:19:24.625Z,4.72
2022-09-30T15:21:53.274Z,4.80
2022-09-30T15:24:22.459Z,5.00
2022-09-30T15:26:50.856Z,4.80
2022-09-30T15:29:17.668Z,4.60
2022-09-30T15:31:49.234Z,4.22
2022-09-30T15:34:21.909Z,3.92
2022-09-30T15:37:29.814Z,3.60
2022-09-30T15:40:14.611Z,4.00
2022-09-30T15:42:46.277Z,7.70
2022-09-30T15:45:35.284Z,7.47
2022-09-30T15:48:27.495Z,7.38
2022-09-30T15:50:56.346Z,6.88
2022-09-30T15:53:25.628Z,7.82
2022-09-30T15:55:55.594Z,8.45
2022-09-30T15:58:39.641Z,9.25
2022-09-30T16:03:55.830Z,9.05
2022-09-30T16:06:35.373Z,8.90
2022-09-30T16:09:06.722Z,9.00
2022-09-30T16:11:36.768Z,12.57
2022-09-30T16:14:07.323Z,10.13
2022-09-30T16:16:36.172Z,11.02
2022-09-30T16:19:04.127Z,10.43
2022-09-30T16:21:47.218Z,11.70
2022-09-30T16:24:23.016Z,12.50
2022-09-30T16:26:50.368Z,12.77
2022-09-30T16:29:18.084Z,12.27
2022-09-30T16:31:46.937Z,14.15
2022-09-30T16:34:21.056Z,18.73
2022-09-30T16:36:47.930Z,16.70
2022-09-30T16:39:16.690Z,16.83
2022-09-30T16:41:43.763Z,18.65
2022-09-30T16:44:10.288Z,17.13
2022-09-30T16:46:37.244Z,19.27
2022-09-30T16:49:15.813Z,16.73
2022-09-30T16:51:42.989Z,18.83
2022-09-30T16:54:10.695Z,16.00
2022-09-30T16:56:37.639Z,18.80
2022-09-30T16:59:04.639Z,15.68
2022-09-30T17:01:31.090Z,17.92
2022-09-30T17:03:58.274Z,15.05
2022-09-30T17:06:28.037Z,14.50
2022-09-30T17:08:54.785Z,15.95
2022-09-30T17:11:27.089Z,15.18
2022-09-30T17:13:53.659Z,16.23
2022-09-30T17:16:20.222Z,15.38
2022-09-30T17:18:46.746Z,14.60
2022-09-30T17:21:13.223Z,14.60
2022-09-30T17:23:39.703Z,14.63
2022-09-30T17:26:06.657Z,15.27
2022-09-30T17:28:34.667Z,14.68
2022-09-30T17:31:02.126Z,15.02
2022-09-30T17:33:33.386Z,15.68
2022-09-30T17:36:02.280Z,16.80
2022-09-30T17:38:29.443Z,15.18
2022-09-30T17:41:14.649Z,16.45
2022-09-30T17:43:41.273Z,15.40
2022-09-30T17:46:08.591Z,16.65
2022-09-30T17:48:35.492Z,15.73
2022-09-30T17:51:01.964Z,16.55
2022-09-30T17:53:30.778Z,17.25
2022-09-30T17:56:02.439Z,16.10
2022-09-30T17:58:29.277Z,16.27
2022-09-30T18:00:59.422Z,19.23
2022-09-30T18:03:28.129Z,17.40
2022-09-30T18:05:58.731Z,20.70
2022-09-30T18:08:28.349Z,18.52
2022-09-30T18:10:57.311Z,19.95
2022-09-30T18:13:24.837Z,18.20
2022-09-30T18:15:51.441Z,22.00
2022-09-30T18:18:17.954Z,30.40
2022-09-30T18:20:45.985Z,25.70
2022-09-30T18:23:12.686Z,24.80
2022-09-30T18:25:41.202Z,24.92
2022-09-30T18:28:08.817Z,26.23
2022-09-30T18:30:36.641Z,24.50
2022-09-30T18:33:07.383Z,32.67
2022-09-30T18:35:38.922Z,28.42
2022-09-30T18:38:06.776Z,22.77
2022-09-30T18:40:33.671Z,20.88
2022-09-30T18:43:02.683Z,20.67
2022-09-30T18:45:31.455Z,21.98
2022-09-30T18:48:00.187Z,20.88
2022-09-30T18:50:28.787Z,22.73
2022-09-30T18:52:56.303Z,21.30
2022-09-30T18:55:23.099Z,22.65
2022-09-30T18:57:53.117Z,21.95
2022-09-30T19:00:20.558Z,21.92
2022-09-30T19:02:47.194Z,23.83
2022-09-30T19:05:16.678Z,24.13
2022-09-30T19:07:43.725Z,25.60
2022-09-30T19:10:12.605Z,25.83
2022-09-30T19:12:40.431Z,23.67
2022-09-30T19:15:09.453Z,23.02
2022-09-30T19:17:37.322Z,26.13
2022-09-30T19:20:05.993Z,26.67
2022-09-30T19:22:37.155Z,25.05
2022-09-30T19:25:12.910Z,27.38
2022-09-30T19:27:41.341Z,30.30
2022-09-30T19:30:12.764Z,34.05
2022-09-30T19:32:39.922Z,33.60
2022-09-30T19:35:17.063Z,32.97
2022-09-30T19:37:56.364Z,31.17
2022-09-30T19:40:26.626Z,31.67
2022-09-30T19:42:53.153Z,30.98
2022-09-30T19:45:25.669Z,32.38
2022-09-30T19:47:53.083Z,33.35
2022-09-30T19:50:19.677Z,28.75
2022-09-30T19:52:55.676Z,28.58
2022-09-30T19:55:23.889Z,27.92
2022-09-30T19:57:50.346Z,27.75
2022-09-30T20:00:17.239Z,29.65
2022-09-30T20:02:43.707Z,25.75
2022-09-30T20:05:12.611Z,27.15
2022-09-30T20:07:39.597Z,29.00
2022-09-30T20:10:06.474Z,26.58
2022-09-30T20:12:32.933Z,27.83
2022-09-30T20:15:18.209Z,26.77
2022-09-30T20:17:44.713Z,27.00
2022-09-30T20:20:30.112Z,27.38
2022-09-30T20:22:59.925Z,27.05
2022-09-30T20:25:26.443Z,27.40
2022-09-30T20:27:52.922Z,27.35
2022-09-30T20:30:20.315Z,30.73
2022-09-30T20:32:46.794Z,31.58
2022-09-30T20:35:13.955Z,30.25
2022-09-30T20:37:41.918Z,26.52
2022-09-30T20:40:11.739Z,27.95
2022-09-30T20:42:39.958Z,31.77
2022-09-30T20:45:10.283Z,31.73
2022-09-30T20:47:42.248Z,29.15
2022-09-30T20:50:10.508Z,30.70
2022-09-30T20:52:37.054Z,30.48
2022-09-30T20:55:03.823Z,27.90
2022-09-30T20:57:30.418Z,31.08
2022-09-30T20:59:59.145Z,33.25
2022-09-30T21:02:27.594Z,28.17
2022-09-30T21:04:59.786Z,28.63
2022-09-30T21:07:26.754Z,28.15
2022-09-30T21:09:55.308Z,29.38
2022-09-30T21:12:21.864Z,27.92
2022-09-30T21:14:48.423Z,27.77
2022-09-30T21:17:15.087Z,27.67
2022-09-30T21:19:41.585Z,27.55
2022-09-30T21:22:08.191Z,25.35
2022-09-30T21:24:34.739Z,25.63
2022-09-30T21:27:01.786Z,23.90
2022-09-30T21:29:30.583Z,27.95
2022-09-30T21:31:57.320Z,23.13
2022-09-30T21:34:23.961Z,27.10
2022-09-30T21:36:50.457Z,23.23
2022-09-30T21:39:16.985Z,24.80
2022-09-30T21:41:44.724Z,24.42
2022-09-30T21:44:11.281Z,24.63
2022-09-30T21:46:37.761Z,24.25
2022-09-30T21:49:18.575Z,21.90
2022-09-30T21:51:45.478Z,24.13
2022-09-30T21:54:13.864Z,22.98
2022-09-30T21:56:42.691Z,23.58
2022-09-30T21:59:10.122Z,23.08
2022-09-30T22:01:37.469Z,21.17
2022-09-30T22:04:05.009Z,20.58
2022-09-30T22:06:32.126Z,21.65
2022-09-30T22:09:01.522Z,24.02
2022-09-30T22:11:29.566Z,20.73
2022-09-30T22:13:57.990Z,18.88
2022-09-30T22:16:27.169Z,18.83
2022-09-30T22:18:55.448Z,18.98
2022-09-30T22:21:22.242Z,18.67
2022-09-30T22:23:49.552Z,20.38
2022-09-30T22:26:18.479Z,21.85
2022-09-30T22:28:46.472Z,19.38
2022-09-30T22:31:17.558Z,20.60
2022-09-30T22:34:03.082Z,21.33
2022-09-30T22:36:48.127Z,23.17
2022-09-30T22:39:14.646Z,23.23
2022-09-30T22:41:41.313Z,20.77
2022-09-30T22:44:08.739Z,19.60
2022-09-30T22:46:36.694Z,20.70
2022-09-30T22:49:04.490Z,19.52
2022-09-30T22:51:32.811Z,18.10
2022-09-30T22:54:01.209Z,20.30
2022-09-30T22:56:27.851Z,18.58
2022-09-30T22:58:54.410Z,18.58
2022-09-30T23:01:21.638Z,19.83
2022-09-30T23:03:53.691Z,19.65
2022-09-30T23:06:21.028Z,16.73
2022-09-30T23:08:47.635Z,19.25
2022-09-30T23:11:16.802Z,18.67
2022-09-30T23:13:46.175Z,17.42
2022-09-30T23:16:13.866Z,19.00
2022-09-30T23:18:40.444Z,19.42
2022-09-30T23:21:13.636Z,19.65
2022-09-30T23:23:40.781Z,17.83
2022-09-30T23:26:12.519Z,18.90
2022-09-30T23:28:39.379Z,19.90
2022-09-30T23:31:11.065Z,17.52
2022-09-30T23:33:39.699Z,17.15
2022-09-30T23:36:07.081Z,17.80
2022-09-30T23:38:33.973Z,19.42
2022-09-30T23:41:00.488Z,16.63
2022-09-30T23:43:30.125Z,17.92
2022-09-30T23:46:06.194Z,16.83
2022-09-30T23:48:34.504Z,17.15
2022-09-30T23:51:01.512Z,16.08
2022-09-30T23:53:28.027Z,15.73
2022-09-30T23:55:55.010Z,17.13
2022-09-30T23:58:22.385Z,17.20
